Flight Track Log - Related Links

Times and Time Zones

All times are in EDT time to prevent confusion due to time zone crossing. See the N724HS flight status page for this flight to view local times or setup timezone preferences in your user account.


Time Position Orientation Groundspeed Altitude Reporting Facility
EDT Latitude Longitude Course Direction KTS MPH feet Rate Location/Type
Fri 04:30:34 PM 24.2231 -75.7411 296° West 193 222 7,100  Level Miami Center
Fri 04:31:36 PM 24.2464 -75.7944 296° West 193 222 8,700 1,597 Climbing Miami Center
Fri 04:32:38 PM 24.2694 -75.8481 295° West 193 222 10,400 1,403 Climbing Miami Center
Fri 04:33:40 PM 24.2925 -75.9011 295° West 193 222 11,600 1,258 Climbing Miami Center
Fri 04:34:42 PM 24.3169 -75.9561 296° West 193 222 13,000 1,355 Climbing Miami Center
Fri 04:35:44 PM 24.3456 -76.0222 295° West 195 224 14,400 1,220 Climbing Miami Center
Fri 04:36:45 PM 24.3697 -76.0789 295° West 198 228 15,500 780 Climbing Miami Center
Fri 04:37:47 PM 24.3942 -76.1364 295° West 201 231 16,000 242 Climbing Miami Center
Fri 04:38:49 PM 24.4231 -76.1994 297° West 215 247 16,000  Level Miami Center
Fri 04:39:51 PM 24.4531 -76.2683 296° West 233 268 16,000  Level Miami Center
Fri 04:40:53 PM 24.4822 -76.3381 295° West 243 280 16,000  Level Miami Center
Fri 04:41:55 PM 24.5172 -76.4206 295° West 245 282 16,000  Level Miami Center
Fri 04:42:57 PM 24.5464 -76.4878 296° West 245 282 16,000  Level Miami Center
Fri 04:43:59 PM 24.5756 -76.5550 296° West 246 283 16,000  Level Miami Center
Fri 04:45:01 PM 24.6044 -76.6225 295° West 245 282 16,000  Level Miami Center
Fri 04:46:03 PM 24.6339 -76.6911 295° West 245 282 16,000  Level Miami Center
Fri 04:47:05 PM 24.6631 -76.7597 295° West 246 283 16,000  Level Miami Center
Fri 04:48:06 PM 24.6922 -76.8297 295° West 246 283 16,000  Level Miami Center
Fri 04:49:08 PM 24.7283 -76.9117 296° West 246 283 16,000  Level Miami Center
Fri 04:50:10 PM 24.7564 -76.9817 294° West 246 283 16,000  Level Miami Center
Fri 04:51:12 PM 24.7869 -77.0511 296° West 248 285 16,000  Level Miami Center
Fri 04:52:14 PM 24.8164 -77.1208 295° West 248 285 16,000  Level Miami Center
Fri 04:53:16 PM 24.8456 -77.1911 295° West 249 287 16,000  Level Miami Center
Fri 04:54:18 PM 24.8756 -77.2617 295° West 249 287 16,000 -49 Level Miami Center
Fri 04:55:19 PM 24.9058 -77.3328 295° West 251 289 15,900 -732 Descending Miami Center
Fri 04:56:21 PM 24.9433 -77.4192 296° West 254 292 14,500 -919 Descending Miami Center
Fri 04:57:23 PM 24.9756 -77.4964 295° West 267 307 14,000 -242 Descending Miami Center
Fri 04:58:25 PM 25.0078 -77.5731 295° West 267 307 14,000  Level Miami Center
Fri 04:59:27 PM 25.0292 -77.6344 291° West 244 281 14,000  Level Miami Center
Fri 05:00:29 PM 25.0583 -77.6975 297° West 236 272 14,000  Level Miami Center
Fri 05:01:31 PM 25.0850 -77.7639 294° West 236 272 14,000  Level Miami Center
Fri 05:02:33 PM 25.1178 -77.8442 294° West 236 272 14,000  Level Miami Center
Fri 05:03:35 PM 25.1411 -77.8981 296° West 238 274 14,000  Level Miami Center
Fri 05:04:36 PM 25.1772 -77.9811 296° West 244 281 14,000  Level Miami Center
Fri 05:05:38 PM 25.2050 -78.0528 293° West 248 285 14,000  Level Miami Center
Fri 05:06:40 PM 25.2369 -78.1303 295° West 252 290 14,000  Level Miami Center
Fri 05:07:42 PM 25.2706 -78.1983 299° West 252 290 14,000  Level Miami Center
Fri 05:09:45 PM 25.3297 -78.3439 293° West 252 290 14,000  Level Miami Center
Fri 05:11:00 PM 25.3628 -78.4214 295° West 286 329 14,000  Level Miami Center
Fri 05:12:01 PM 25.3908 -78.4892 295° West 249 287 14,000  Level Miami Center
Fri 05:13:03 PM 25.4181 -78.5589 293° West 249 287 14,000  Level Miami Center
Fri 05:14:05 PM 25.4522 -78.6422 294° West 249 287 14,000  Level Miami Center
Fri 05:15:07 PM 25.4794 -78.7108 294° West 249 287 14,000  Level Miami Center
Fri 05:16:08 PM 25.5089 -78.7803 295° West 248 285 14,000  Level Miami Center
Fri 05:17:10 PM 25.5375 -78.8500 294° West 248 285 14,000  Level Miami Center
Fri 05:18:12 PM 25.5656 -78.9194 294° West 248 285 14,000 -488 Level Miami Center
Fri 05:19:13 PM 25.5947 -78.9911 294° West 250 288 13,000 -927 Descending Miami Center
Fri 05:20:15 PM 25.6256 -79.0647 295° West 257 296 12,100 -1,016 Descending Miami Center
Fri 05:21:17 PM 25.6564 -79.1403 294° West 237 273 10,900 -1,024 Descending Miami Center
Fri 05:22:18 PM 25.6814 -79.2039 294° West 227 261 10,000 -439 Descending Miami Center
Fri 05:23:20 PM 25.7028 -79.2608 293° West 212 244 10,000  Level Miami Center
Fri 05:24:22 PM 25.7228 -79.3128 293° West 188 216 10,000  Level Miami Center
Fri 05:25:24 PM 25.7450 -79.3694 294° West 195 224 10,000  Level Miami Center
Fri 05:26:25 PM 25.7683 -79.4253 295° West 200 230 10,000  Level Miami Center
Fri 05:27:27 PM 25.7947 -79.4906 294° West 197 227 10,000  Level Miami Center
Fri 05:28:29 PM 25.8156 -79.5436 294° West 190 219 10,000  Level Miami Center
Fri 05:29:31 PM 25.8372 -79.5983 294° West 190 219 10,000  Level Miami Center
Fri 05:30:33 PM 25.8597 -79.6536 294° West 194 223 10,000  Level Miami Center
Fri 05:31:34 PM 25.8828 -79.7097 295° West 198 228 10,000  Level Miami Center
Fri 05:32:36 PM 25.8450 -79.7344 210° Southwest 205 236 10,000 -97 Level Miami Center
Fri 05:33:38 PM 25.8194 -79.6764 116° Southeast 211 243 9,800 -629 Descending Miami Center
Fri 05:34:40 PM 25.7914 -79.6025 113° Southeast 214 246 8,700 -871 Descending Miami Center
Fri 05:35:42 PM 25.8089 -79.5564 67° East 209 241 8,000 -341 Descending Miami Center
Fri 05:36:43 PM 25.8408 -79.5989 310° West 191 220 8,000 -341 Level Miami Center
Fri 05:37:45 PM 25.8611 -79.6547 292° West 191 220 7,300 -484 Descending Miami Center
Fri 05:38:47 PM 25.8483 -79.7017 253° West 190 219 7,000 -145 Descending Miami Center
Fri 05:39:49 PM 25.7992 -79.6736 153° Southeast 199 229 7,000  Level Miami Center
Fri 05:40:50 PM 25.7519 -79.6436 150° Southeast 197 227 7,000  Level Miami Center
Fri 05:41:52 PM 25.6947 -79.6069 150° Southeast 197 227 7,000 -194 Level Miami Center
Fri 05:42:54 PM 25.6519 -79.5683 141° Southeast 203 234 6,600 -1,161 Descending Miami Center
Fri 05:43:56 PM 25.6897 -79.5386 35° Northeast 207 238 4,600 -1,228 Descending Miami Center
Fri 05:45:01 PM 25.7433 -79.5717 331° Northwest 181 208 4,000 -293 Descending Miami Center
Fri 05:45:59 PM 25.7833 -79.5914 336° Northwest 190 219 4,000  Level Miami Center
Fri 05:46:14 PM 25.8000 -79.6036 327° Northwest 186 214 4,000  Level Miami Center
Fri 05:47:01 PM 25.8289 -79.6175 337° Northwest 188 216 4,000  Level Miami Center
Fri 05:47:15 PM 25.8467 -79.6300 328° Northwest 182 209 4,000  Level Miami Center
Fri 05:48:03 PM 25.8653 -79.6678 299° West 185 213 4,000  Level Miami Center
Fri 05:49:05 PM 25.8878 -79.7181 296° West 183 211 4,000  Level Miami Center
Fri 05:49:23 PM 25.8947 -79.7353 294° West 184 212 4,000  Level Miami Center
Fri 05:50:06 PM 25.9106 -79.7692 297° West 185 213 4,000 -358 Level Miami Center
Fri 05:50:30 PM 25.9186 -79.7925 291° West 183 211 3,600 -871 Descending Miami Center
Fri 05:51:08 PM 25.9325 -79.8208 299° West 185 213 3,100 -590 Descending Miami Center
Fri 05:51:31 PM 25.9406 -79.8453 290° West 183 211 3,000 -97 Descending Miami Center
Fri 05:52:10 PM 25.9519 -79.8692 298° West 172 198 3,000  Level Miami Center
Fri 05:53:12 PM 25.9725 -79.9169 296° West 170 196 3,000  Level Miami Center
Fri 05:54:14 PM 25.9892 -79.9700 289° West 180 207 3,000 -395 Level Miami Center
Fri 05:54:28 PM 25.9881 -79.9947 267° West 190 219 2,500 -984 Descending Miami Center
Fri 05:55:15 PM 25.9903 -80.0383 273° West 186 214 2,000 -275 Descending Miami Center
Fri 05:56:17 PM 25.9911 -80.0944 271° West 186 214 2,000  Level Miami Center
Fri 05:57:19 PM 25.9922 -80.1503 271° West 185 213 2,000  Level Miami Center
Fri 05:58:14 PM 25.9958 -80.2061 274° West 186 214 2,000 -281 Level Miami Center
Fri 05:59:27 PM 26.0406 -80.2281 336° Northwest 185 213 1,400 -415 Descending Miami Center
Fri 06:00:24 PM 26.0644 -80.2100 34° Northeast 145 167 1,100 -555 Descending Miami Center
Fri 06:01:26 PM 26.0764 -80.1800 66° East 111 128 300 -774 Descending Miami Center
Fri 06:03:00 PM 26.0667 -80.1500 77° East  Level FlightAware Approximate

Login

Don't have an account? Register now (free) for customized features, flight alerts, and more!